createdAt,value
2019-02-19T00:00:20.404Z,1005.25
2019-02-19T00:01:20.390Z,1005.23
2019-02-19T00:02:20.378Z,1005.30
2019-02-19T00:03:20.369Z,1005.26
2019-02-19T00:04:20.374Z,1005.25
2019-02-19T00:05:20.349Z,1005.18
2019-02-19T00:06:20.354Z,1005.23
2019-02-19T00:07:20.339Z,1005.24
2019-02-19T00:08:20.316Z,1005.18
2019-02-19T00:09:20.310Z,1005.20
2019-02-19T00:10:20.296Z,1005.28
2019-02-19T00:11:20.290Z,1005.19
2019-02-19T00:12:20.274Z,1005.27
2019-02-19T00:13:20.266Z,1005.17
2019-02-19T00:14:20.255Z,1005.19
2019-02-19T00:15:20.247Z,1005.16
2019-02-19T00:16:20.232Z,1005.18
2019-02-19T00:17:20.226Z,1005.14
2019-02-19T00:18:20.400Z,1005.17
2019-02-19T00:19:20.199Z,1005.22
2019-02-19T00:20:20.188Z,1005.16
2019-02-19T00:21:20.177Z,1005.14
2019-02-19T00:22:20.388Z,1005.15
2019-02-19T00:23:20.169Z,1005.11
2019-02-19T00:24:20.385Z,1005.14
2019-02-19T00:25:20.119Z,1005.12
2019-02-19T00:26:20.118Z,1005.22
2019-02-19T00:27:20.102Z,1005.13
2019-02-19T00:28:20.383Z,1005.17
2019-02-19T00:29:20.085Z,1005.18
2019-02-19T00:30:20.082Z,1005.12
2019-02-19T00:31:20.077Z,1005.16
2019-02-19T00:32:20.048Z,1005.17
2019-02-19T00:33:20.066Z,1005.18
2019-02-19T00:34:20.384Z,1005.20
2019-02-19T00:35:20.009Z,1005.19
2019-02-19T00:36:20.001Z,1005.22
2019-02-19T00:37:19.995Z,1005.20
2019-02-19T00:38:19.985Z,1005.27
2019-02-19T00:39:19.982Z,1005.25
2019-02-19T00:40:19.957Z,1005.23
2019-02-19T00:41:19.941Z,1005.26
2019-02-19T00:42:19.945Z,1005.27
2019-02-19T00:43:19.927Z,1005.31
2019-02-19T00:44:19.930Z,1005.24
2019-02-19T00:45:19.901Z,1005.26
2019-02-19T00:46:19.905Z,1005.25
2019-02-19T00:47:19.880Z,1005.31
2019-02-19T00:48:19.873Z,1005.27
2019-02-19T00:49:19.895Z,1005.30
2019-02-19T00:50:19.868Z,1005.28
2019-02-19T00:51:19.855Z,1005.32
2019-02-19T00:52:19.840Z,1005.38
2019-02-19T00:53:19.884Z,1005.33
2019-02-19T00:54:19.897Z,1005.31
2019-02-19T00:55:19.794Z,1005.28
2019-02-19T00:56:19.787Z,1005.39
2019-02-19T00:57:19.891Z,1005.28
2019-02-19T00:58:19.786Z,1005.32
2019-02-19T00:59:19.745Z,1005.35
2019-02-19T01:00:19.894Z,1005.37
2019-02-19T01:01:19.733Z,1005.33
2019-02-19T01:02:19.713Z,1005.40
2019-02-19T01:03:19.705Z,1005.44
2019-02-19T01:04:19.694Z,1005.38
2019-02-19T01:05:19.700Z,1005.35
2019-02-19T01:06:19.671Z,1005.40
2019-02-19T01:07:19.702Z,1005.39
2019-02-19T01:08:19.648Z,1005.43
2019-02-19T01:09:19.659Z,1005.45
2019-02-19T01:10:19.631Z,1005.37
2019-02-19T01:11:19.614Z,1005.40
2019-02-19T01:12:19.638Z,1005.41
2019-02-19T01:13:19.611Z,1005.39
2019-02-19T01:14:19.596Z,1005.41
2019-02-19T01:15:25.577Z,1005.42
2019-02-19T01:16:20.570Z,1005.42
2019-02-19T01:17:19.550Z,1005.43
2019-02-19T01:18:19.541Z,1005.38
2019-02-19T01:19:19.540Z,1005.35
2019-02-19T01:20:19.894Z,1005.45
2019-02-19T01:21:19.506Z,1005.48
2019-02-19T01:22:19.498Z,1005.48
2019-02-19T01:23:20.348Z,1005.48
2019-02-19T01:24:19.490Z,1005.47
2019-02-19T01:25:19.484Z,1005.44
2019-02-19T01:26:19.896Z,1005.51
2019-02-19T01:27:19.458Z,1005.48
2019-02-19T01:28:19.444Z,1005.55
2019-02-19T01:29:19.420Z,1005.47
2019-02-19T01:30:19.895Z,1005.47
2019-02-19T01:31:19.400Z,1005.50
2019-02-19T01:32:19.399Z,1005.49
2019-02-19T01:33:19.386Z,1005.49
2019-02-19T01:34:19.394Z,1005.47
2019-02-19T01:35:19.367Z,1005.50
2019-02-19T01:36:19.419Z,1005.56
2019-02-19T01:37:19.333Z,1005.52
2019-02-19T01:38:19.320Z,1005.48
2019-02-19T01:39:19.328Z,1005.46
2019-02-19T01:40:19.306Z,1005.50
2019-02-19T01:41:19.389Z,1005.50
2019-02-19T01:42:19.295Z,1005.51
2019-02-19T01:43:19.408Z,1005.56
2019-02-19T01:44:19.276Z,1005.51
2019-02-19T01:45:19.269Z,1005.51
2019-02-19T01:46:19.407Z,1005.58
2019-02-19T01:47:19.222Z,1005.53
2019-02-19T01:48:19.212Z,1005.58
2019-02-19T01:49:19.200Z,1005.62
2019-02-19T01:50:19.191Z,1005.62
2019-02-19T01:51:19.418Z,1005.70
2019-02-19T01:52:19.181Z,1005.66
2019-02-19T01:53:19.176Z,1005.63
2019-02-19T01:54:19.167Z,1005.66
2019-02-19T01:55:19.149Z,1005.63
2019-02-19T01:56:19.133Z,1005.56
2019-02-19T01:57:19.137Z,1005.55
2019-02-19T01:58:19.121Z,1005.55
2019-02-19T01:59:19.093Z,1005.58
2019-02-19T02:00:19.079Z,1005.61
2019-02-19T02:01:19.080Z,1005.62
2019-02-19T02:02:19.080Z,1005.62
2019-02-19T02:03:19.048Z,1005.68
2019-02-19T02:04:19.038Z,1005.64
2019-02-19T02:05:19.062Z,1005.61
2019-02-19T02:06:19.032Z,1005.71
2019-02-19T02:07:19.013Z,1005.63
2019-02-19T02:08:19.006Z,1005.75
2019-02-19T02:09:18.999Z,1005.77
2019-02-19T02:10:19.391Z,1005.78
2019-02-19T02:11:19.403Z,1005.80
2019-02-19T02:12:18.959Z,1005.79
2019-02-19T02:13:18.947Z,1005.71
2019-02-19T02:14:18.950Z,1005.79
2019-02-19T02:15:18.919Z,1005.75
2019-02-19T02:16:18.912Z,1005.66
2019-02-19T02:17:19.407Z,1005.69
2019-02-19T02:18:18.920Z,1005.64
2019-02-19T02:19:18.875Z,1005.63
2019-02-19T02:20:18.865Z,1005.62
2019-02-19T02:21:18.853Z,1005.62
2019-02-19T02:22:18.849Z,1005.65
2019-02-19T02:23:18.908Z,1005.60
2019-02-19T02:24:18.824Z,1005.56
2019-02-19T02:25:18.855Z,1005.62
2019-02-19T02:26:18.799Z,1005.52
2019-02-19T02:27:18.816Z,1005.63
2019-02-19T02:28:18.788Z,1005.62
2019-02-19T02:29:18.773Z,1005.67
2019-02-19T02:30:18.792Z,1005.73
2019-02-19T02:31:18.757Z,1005.62
2019-02-19T02:32:18.919Z,1005.71
2019-02-19T02:33:18.743Z,1005.78
2019-02-19T02:34:18.719Z,1005.70
2019-02-19T02:35:18.726Z,1005.71
2019-02-19T02:36:18.735Z,1005.72
2019-02-19T02:37:18.687Z,1005.77
2019-02-19T02:38:18.920Z,1005.78
2019-02-19T02:39:18.702Z,1005.73
2019-02-19T02:40:18.649Z,1005.72
2019-02-19T02:41:18.653Z,1005.71
2019-02-19T02:42:18.633Z,1005.70
2019-02-19T02:43:18.923Z,1005.73
2019-02-19T02:44:18.627Z,1005.73
2019-02-19T02:45:18.611Z,1005.67
2019-02-19T02:46:18.937Z,1005.66
2019-02-19T02:47:18.581Z,1005.66
2019-02-19T02:48:18.581Z,1005.68
2019-02-19T02:49:18.602Z,1005.65
2019-02-19T02:50:18.548Z,1005.66
2019-02-19T02:51:18.549Z,1005.72
2019-02-19T02:52:18.528Z,1005.73
2019-02-19T02:53:18.521Z,1005.73
2019-02-19T02:54:18.511Z,1005.73
2019-02-19T02:55:18.496Z,1005.70
2019-02-19T02:56:18.504Z,1005.78
2019-02-19T02:57:19.398Z,1005.71
2019-02-19T02:58:18.458Z,1005.71
2019-02-19T02:59:18.437Z,1005.74
2019-02-19T03:00:18.449Z,1005.72
2019-02-19T03:01:18.458Z,1005.75
2019-02-19T03:02:18.408Z,1005.78
2019-02-19T03:03:18.395Z,1005.77
2019-02-19T03:04:18.388Z,1005.78
2019-02-19T03:05:18.374Z,1005.80
2019-02-19T03:06:18.392Z,1005.81
2019-02-19T03:07:18.351Z,1005.76
2019-02-19T03:08:18.344Z,1005.75
2019-02-19T03:09:18.335Z,1005.83
2019-02-19T03:10:18.317Z,1005.78
2019-02-19T03:11:18.419Z,1005.80
2019-02-19T03:12:18.304Z,1005.79
2019-02-19T03:13:18.292Z,1005.79
2019-02-19T03:14:18.274Z,1005.77
2019-02-19T03:15:18.282Z,1005.77
2019-02-19T03:16:18.258Z,1005.73
2019-02-19T03:17:18.262Z,1005.75
2019-02-19T03:18:18.236Z,1005.77
2019-02-19T03:19:18.438Z,1005.68
2019-02-19T03:20:18.226Z,1005.78
2019-02-19T03:21:18.213Z,1005.76
2019-02-19T03:22:18.189Z,1005.78
2019-02-19T03:23:18.426Z,1005.74
2019-02-19T03:24:18.171Z,1005.85
2019-02-19T03:25:18.179Z,1005.74
2019-02-19T03:26:18.161Z,1005.77
2019-02-19T03:27:18.142Z,1005.76
2019-02-19T03:28:18.131Z,1005.75
2019-02-19T03:29:18.430Z,1005.78
2019-02-19T03:30:18.098Z,1005.80
2019-02-19T03:31:18.104Z,1005.83
2019-02-19T03:32:18.093Z,1005.90
2019-02-19T03:33:18.070Z,1005.92
2019-02-19T03:34:18.057Z,1005.91
2019-02-19T03:35:18.417Z,1005.89
2019-02-19T03:36:18.051Z,1005.90
2019-02-19T03:37:18.058Z,1005.92
2019-02-19T03:38:18.009Z,1005.93
2019-02-19T03:39:18.002Z,1005.96
2019-02-19T03:40:17.990Z,1006.00
2019-02-19T03:41:17.981Z,1006.04
2019-02-19T03:42:18.438Z,1006.04
2019-02-19T03:43:17.969Z,1005.99
2019-02-19T03:44:17.944Z,1006.02
2019-02-19T03:45:17.950Z,1005.98
2019-02-19T03:46:17.925Z,1006.00
2019-02-19T03:47:17.931Z,1006.01
2019-02-19T03:48:17.907Z,1006.02
2019-02-19T03:49:17.901Z,1006.05
2019-02-19T03:50:17.888Z,1006.01
2019-02-19T03:51:17.871Z,1006.02
2019-02-19T03:52:17.879Z,1006.04
2019-02-19T03:53:17.852Z,1006.05
2019-02-19T03:54:17.943Z,1006.01
2019-02-19T03:55:17.825Z,1006.14
2019-02-19T03:56:17.813Z,1006.09
2019-02-19T03:57:17.806Z,1006.09
2019-02-19T03:58:17.818Z,1006.08
2019-02-19T03:59:17.869Z,1006.06
2019-02-19T04:00:17.771Z,1006.09
2019-02-19T04:01:17.791Z,1006.04
2019-02-19T04:02:17.758Z,1006.05
2019-02-19T04:03:17.748Z,1005.99
2019-02-19T04:04:17.737Z,1006.00
2019-02-19T04:05:17.937Z,1006.00
2019-02-19T04:06:17.712Z,1006.02
2019-02-19T04:07:17.703Z,1006.01
2019-02-19T04:08:17.697Z,1006.00
2019-02-19T04:09:17.673Z,1006.14
2019-02-19T04:10:17.944Z,1006.10
2019-02-19T04:11:17.695Z,1006.22
2019-02-19T04:12:17.675Z,1006.11
2019-02-19T04:13:17.643Z,1006.08
2019-02-19T04:14:17.626Z,1006.09
2019-02-19T04:15:17.618Z,1006.06
2019-02-19T04:16:21.356Z,1006.06
2019-02-19T04:17:17.589Z,1006.07
2019-02-19T04:18:17.588Z,1006.03
2019-02-19T04:19:17.565Z,1006.05
2019-02-19T04:20:17.552Z,1006.02
2019-02-19T04:21:17.932Z,1005.96
2019-02-19T04:22:17.533Z,1006.01
2019-02-19T04:23:17.548Z,1005.99
2019-02-19T04:24:17.518Z,1005.95
2019-02-19T04:25:17.510Z,1006.06
2019-02-19T04:26:17.489Z,1006.02
2019-02-19T04:27:17.479Z,1005.99
2019-02-19T04:28:17.481Z,1005.98
2019-02-19T04:29:17.483Z,1005.95
2019-02-19T04:30:17.468Z,1006.01
2019-02-19T04:31:17.433Z,1006.01
2019-02-19T04:32:17.429Z,1006.00
2019-02-19T04:33:17.449Z,1006.04
2019-02-19T04:34:17.406Z,1006.04
2019-02-19T04:35:17.390Z,1006.00
2019-02-19T04:36:17.407Z,1006.07
2019-02-19T04:37:17.369Z,1006.07
2019-02-19T04:38:17.375Z,1006.13
2019-02-19T04:39:17.347Z,1006.05
2019-02-19T04:40:17.352Z,1006.05
2019-02-19T04:41:17.453Z,1006.11
2019-02-19T04:42:17.356Z,1006.11
2019-02-19T04:43:17.325Z,1006.08
2019-02-19T04:44:17.318Z,1006.15
2019-02-19T04:45:17.293Z,1006.14
2019-02-19T04:46:17.286Z,1006.15
2019-02-19T04:47:17.425Z,1006.18
2019-02-19T04:48:17.246Z,1006.21
2019-02-19T04:49:17.244Z,1006.22
2019-02-19T04:50:17.236Z,1006.23
2019-02-19T04:51:17.238Z,1006.25
2019-02-19T04:52:17.242Z,1006.21
2019-02-19T04:53:17.210Z,1006.20
2019-02-19T04:54:17.189Z,1006.20
2019-02-19T04:55:17.192Z,1006.24
2019-02-19T04:56:17.454Z,1006.21
2019-02-19T04:57:17.151Z,1006.22
2019-02-19T04:58:17.169Z,1006.18
2019-02-19T04:59:17.132Z,1006.21
2019-02-19T05:00:17.122Z,1006.21
2019-02-19T05:01:17.117Z,1006.21
2019-02-19T05:02:17.456Z,1006.26
2019-02-19T05:03:17.099Z,1006.30
2019-02-19T05:04:17.099Z,1006.30
2019-02-19T05:05:17.086Z,1006.27
2019-02-19T05:06:17.062Z,1006.28
2019-02-19T05:07:17.443Z,1006.27
2019-02-19T05:08:17.032Z,1006.38
2019-02-19T05:09:17.019Z,1006.32
2019-02-19T05:10:17.034Z,1006.32
2019-02-19T05:11:17.000Z,1006.36
2019-02-19T05:12:16.990Z,1006.30
2019-02-19T05:13:17.449Z,1006.37
2019-02-19T05:14:16.973Z,1006.36
2019-02-19T05:15:16.973Z,1006.39
2019-02-19T05:16:16.950Z,1006.41
2019-02-19T05:17:16.958Z,1006.38
2019-02-19T05:18:16.919Z,1006.38
2019-02-19T05:19:16.915Z,1006.42
2019-02-19T05:20:16.902Z,1006.48
2019-02-19T05:21:16.904Z,1006.50
2019-02-19T05:22:16.940Z,1006.49
2019-02-19T05:23:16.870Z,1006.45
2019-02-19T05:24:16.859Z,1006.37
2019-02-19T05:25:16.966Z,1006.39
2019-02-19T05:26:16.842Z,1006.37
2019-02-19T05:27:16.846Z,1006.43
2019-02-19T05:28:16.838Z,1006.45
2019-02-19T05:29:16.822Z,1006.45
2019-02-19T05:30:16.936Z,1006.42
2019-02-19T05:31:16.801Z,1006.41
2019-02-19T05:32:16.772Z,1006.44
2019-02-19T05:33:16.792Z,1006.35
2019-02-19T05:34:16.753Z,1006.37
2019-02-19T05:35:16.752Z,1006.43
2019-02-19T05:36:16.750Z,1006.38
2019-02-19T05:37:16.718Z,1006.33
2019-02-19T05:38:16.715Z,1006.42
2019-02-19T05:39:16.952Z,1006.45
2019-02-19T05:40:16.686Z,1006.36
2019-02-19T05:41:16.961Z,1006.39
2019-02-19T05:42:16.667Z,1006.44
2019-02-19T05:43:16.656Z,1006.37
2019-02-19T05:44:16.658Z,1006.36
2019-02-19T05:45:16.967Z,1006.43
2019-02-19T05:46:16.626Z,1006.44
2019-02-19T05:47:16.617Z,1006.34
2019-02-19T05:48:16.603Z,1006.47
2019-02-19T05:49:16.592Z,1006.42
2019-02-19T05:50:16.612Z,1006.48
2019-02-19T05:51:16.569Z,1006.47
2019-02-19T05:52:16.559Z,1006.44
2019-02-19T05:53:16.556Z,1006.41
2019-02-19T05:54:16.971Z,1006.39
2019-02-19T05:55:17.439Z,1006.38
2019-02-19T05:56:16.543Z,1006.44
2019-02-19T05:57:16.959Z,1006.39
2019-02-19T05:58:16.494Z,1006.42
2019-02-19T05:59:16.482Z,1006.40
2019-02-19T06:00:16.470Z,1006.37
2019-02-19T06:01:16.961Z,1006.39
2019-02-19T06:02:16.479Z,1006.36
2019-02-19T06:03:16.445Z,1006.31
2019-02-19T06:04:16.432Z,1006.35
2019-02-19T06:05:16.427Z,1006.40
2019-02-19T06:06:16.437Z,1006.38
2019-02-19T06:07:16.413Z,1006.45
2019-02-19T06:08:16.428Z,1006.38
2019-02-19T06:09:16.428Z,1006.41
2019-02-19T06:10:16.946Z,1006.42
2019-02-19T06:11:16.365Z,1006.46
2019-02-19T06:12:16.360Z,1006.43
2019-02-19T06:13:16.356Z,1006.52
2019-02-19T06:14:16.327Z,1006.55
2019-02-19T06:15:16.321Z,1006.50
2019-02-19T06:16:16.307Z,1006.54
2019-02-19T06:17:16.290Z,1006.57
2019-02-19T06:18:16.301Z,1006.59
2019-02-19T06:19:16.270Z,1006.51
2019-02-19T06:20:16.276Z,1006.52
2019-02-19T06:21:16.943Z,1006.51
2019-02-19T06:22:16.268Z,1006.56
2019-02-19T06:23:16.233Z,1006.59
2019-02-19T06:24:16.212Z,1006.51
2019-02-19T06:25:16.210Z,1006.49
2019-02-19T06:26:16.197Z,1006.47
2019-02-19T06:27:16.217Z,1006.47
2019-02-19T06:28:16.944Z,1006.55
2019-02-19T06:29:16.164Z,1006.61
2019-02-19T06:30:16.154Z,1006.64
2019-02-19T06:31:16.968Z,1006.71
2019-02-19T06:32:16.463Z,1006.75
2019-02-19T06:33:16.532Z,1006.79
2019-02-19T06:34:17.974Z,1006.76
2019-02-19T06:35:16.471Z,1006.78
2019-02-19T06:36:16.102Z,1006.80
2019-02-19T06:37:16.943Z,1006.96
2019-02-19T06:38:16.072Z,1006.94
2019-02-19T06:39:17.089Z,1006.88
2019-02-19T06:40:16.119Z,1006.90
2019-02-19T06:41:17.170Z,1006.94
2019-02-19T06:42:16.030Z,1006.96
2019-02-19T06:43:16.953Z,1006.94
2019-02-19T06:44:16.966Z,1007.01
2019-02-19T06:45:16.029Z,1007.08
2019-02-19T06:46:16.961Z,1007.08
2019-02-19T06:47:16.953Z,1007.09
2019-02-19T06:48:16.949Z,1007.09
2019-02-19T06:49:15.976Z,1007.08
2019-02-19T06:50:16.497Z,1007.08
2019-02-19T06:51:15.935Z,1007.06
2019-02-19T06:52:16.479Z,1007.08
2019-02-19T06:53:16.468Z,1007.12
2019-02-19T06:54:16.497Z,1007.16
2019-02-19T06:55:16.464Z,1007.21
2019-02-19T06:56:15.871Z,1007.13
2019-02-19T06:57:16.460Z,1007.20
2019-02-19T06:58:16.464Z,1007.17
2019-02-19T06:59:15.988Z,1007.18
2019-02-19T07:00:16.499Z,1007.10
2019-02-19T07:01:15.823Z,1007.19
2019-02-19T07:02:16.480Z,1007.18
2019-02-19T07:03:16.596Z,1007.21
2019-02-19T07:04:15.993Z,1007.27
2019-02-19T07:05:16.462Z,1007.21
2019-02-19T07:06:15.981Z,1007.31
2019-02-19T07:07:16.464Z,1007.25
2019-02-19T07:08:16.479Z,1007.32
2019-02-19T07:09:16.472Z,1007.35
2019-02-19T07:10:16.461Z,1007.44
2019-02-19T07:11:16.191Z,1007.43
2019-02-19T07:12:16.469Z,1007.46
2019-02-19T07:13:16.462Z,1007.47
2019-02-19T07:14:16.460Z,1007.45
2019-02-19T07:15:16.500Z,1007.44
2019-02-19T07:16:16.482Z,1007.45
2019-02-19T07:17:16.057Z,1007.52
2019-02-19T07:18:16.461Z,1007.58
2019-02-19T07:19:16.474Z,1007.52
2019-02-19T07:20:16.470Z,1007.56
2019-02-19T07:21:16.458Z,1007.64
2019-02-19T07:22:15.997Z,1007.62
2019-02-19T07:23:16.467Z,1007.60
2019-02-19T07:24:26.489Z,1007.62
2019-02-19T07:25:16.464Z,1007.62
2019-02-19T07:26:16.501Z,1007.67
2019-02-19T07:27:15.535Z,1007.70
2019-02-19T07:28:16.479Z,1007.68
2019-02-19T07:29:18.995Z,1007.71
2019-02-19T07:30:16.463Z,1007.72
2019-02-19T07:31:16.488Z,1007.77
2019-02-19T07:32:15.478Z,1007.75
2019-02-19T07:33:16.504Z,1007.76
2019-02-19T07:34:15.476Z,1007.77
2019-02-19T07:35:15.499Z,1007.84
2019-02-19T07:36:16.365Z,1007.76
2019-02-19T07:37:15.420Z,1007.74
2019-02-19T07:38:15.422Z,1007.78
2019-02-19T07:39:15.961Z,1007.81
2019-02-19T07:40:17.422Z,1007.79
2019-02-19T07:41:15.485Z,1007.82
2019-02-19T07:42:15.503Z,1007.81
2019-02-19T07:43:16.001Z,1007.85
2019-02-19T07:44:15.970Z,1007.80
2019-02-19T07:45:15.974Z,1007.86
2019-02-19T07:46:15.970Z,1007.91
2019-02-19T07:47:24.436Z,1007.91
2019-02-19T07:48:16.974Z,1007.87
2019-02-19T07:49:15.967Z,1007.90
2019-02-19T07:50:15.974Z,1007.91
2019-02-19T07:51:15.986Z,1007.92
2019-02-19T07:52:15.988Z,1007.94
2019-02-19T07:53:15.315Z,1007.94
2019-02-19T07:54:16.004Z,1007.96
2019-02-19T07:55:15.974Z,1007.97
2019-02-19T07:56:15.978Z,1008.03
2019-02-19T07:57:15.514Z,1007.90
2019-02-19T07:58:15.975Z,1007.92
2019-02-19T07:59:15.189Z,1007.94
2019-02-19T08:00:16.004Z,1007.93
2019-02-19T08:01:15.497Z,1007.96
2019-02-19T08:02:15.979Z,1007.96
2019-02-19T08:03:15.978Z,1007.96
2019-02-19T08:04:18.592Z,1008.01
2019-02-19T08:05:15.971Z,1008.01
2019-02-19T08:06:15.969Z,1008.03
2019-02-19T08:07:15.573Z,1008.06
2019-02-19T08:08:15.968Z,1008.09
2019-02-19T08:09:15.074Z,1008.00
2019-02-19T08:10:16.000Z,1008.02
2019-02-19T08:11:15.491Z,1008.06
2019-02-19T08:12:15.972Z,1008.10
2019-02-19T08:13:16.025Z,1008.02
2019-02-19T08:14:15.981Z,1008.08
2019-02-19T08:15:15.973Z,1008.11
2019-02-19T08:16:15.512Z,1008.11
2019-02-19T08:17:15.554Z,1008.17
2019-02-19T08:18:15.984Z,1008.11
2019-02-19T08:19:15.492Z,1008.16
2019-02-19T08:20:18.477Z,1008.19
2019-02-19T08:21:15.482Z,1008.22
2019-02-19T08:22:16.045Z,1008.22
2019-02-19T08:23:15.022Z,1008.21
2019-02-19T08:24:15.471Z,1008.26
2019-02-19T08:25:14.907Z,1008.20
2019-02-19T08:26:15.478Z,1008.26
2019-02-19T08:27:15.500Z,1008.27
2019-02-19T08:28:15.019Z,1008.26
2019-02-19T08:29:15.520Z,1008.22
2019-02-19T08:30:14.879Z,1008.15
2019-02-19T08:31:15.475Z,1008.12
2019-02-19T08:32:15.499Z,1008.10
2019-02-19T08:33:15.004Z,1008.17
2019-02-19T08:34:15.027Z,1008.15
2019-02-19T08:35:14.810Z,1008.17
2019-02-19T08:36:15.500Z,1008.22
2019-02-19T08:37:17.608Z,1008.16
2019-02-19T08:38:15.511Z,1008.23
2019-02-19T08:39:15.492Z,1008.24
2019-02-19T08:40:15.003Z,1008.28
2019-02-19T08:41:15.537Z,1008.21
2019-02-19T08:42:15.500Z,1008.28
2019-02-19T08:43:15.527Z,1008.38
2019-02-19T08:44:15.537Z,1008.28
2019-02-19T08:45:15.504Z,1008.24
2019-02-19T08:46:15.485Z,1008.28
2019-02-19T08:47:15.496Z,1008.24
2019-02-19T08:48:15.493Z,1008.22
2019-02-19T08:49:15.544Z,1008.20
2019-02-19T08:50:15.499Z,1008.18
2019-02-19T08:51:14.629Z,1008.16
2019-02-19T08:52:15.491Z,1008.23
2019-02-19T08:53:15.493Z,1008.16
2019-02-19T08:54:15.522Z,1008.17
2019-02-19T08:55:15.501Z,1008.15
2019-02-19T08:56:14.578Z,1008.19
2019-02-19T08:57:15.566Z,1008.21
2019-02-19T08:58:15.011Z,1008.31
2019-02-19T08:59:15.514Z,1008.21
2019-02-19T09:00:15.508Z,1008.28
2019-02-19T09:01:15.015Z,1008.27
2019-02-19T09:02:15.495Z,1008.26
2019-02-19T09:03:16.944Z,1008.24
2019-02-19T09:04:14.998Z,1008.32
2019-02-19T09:05:14.995Z,1008.27
2019-02-19T09:06:15.048Z,1008.29
2019-02-19T09:07:15.023Z,1008.27
2019-02-19T09:08:15.011Z,1008.29
2019-02-19T09:09:15.011Z,1008.28
2019-02-19T09:10:14.621Z,1008.26
2019-02-19T09:11:14.992Z,1008.24
2019-02-19T09:12:14.452Z,1008.27
2019-02-19T09:13:14.993Z,1008.37
2019-02-19T09:14:14.997Z,1008.25
2019-02-19T09:15:15.003Z,1008.26
2019-02-19T09:16:15.001Z,1008.27
2019-02-19T09:17:14.522Z,1008.29
2019-02-19T09:18:14.996Z,1008.34
2019-02-19T09:19:15.003Z,1008.38
2019-02-19T09:20:15.010Z,1008.29
2019-02-19T09:21:15.023Z,1008.30
2019-02-19T09:22:14.287Z,1008.27
2019-02-19T09:23:15.046Z,1008.23
2019-02-19T09:24:15.030Z,1008.36
2019-02-19T09:25:15.010Z,1008.30
2019-02-19T09:26:14.998Z,1008.22
2019-02-19T09:27:14.241Z,1008.30
2019-02-19T09:28:14.528Z,1008.29
2019-02-19T09:29:14.535Z,1008.25
2019-02-19T09:30:15.002Z,1008.36
2019-02-19T09:31:15.019Z,1008.30
2019-02-19T09:32:15.011Z,1008.32
2019-02-19T09:33:14.998Z,1008.27
2019-02-19T09:34:14.206Z,1008.21
2019-02-19T09:35:15.004Z,1008.28
2019-02-19T09:36:15.026Z,1008.19
2019-02-19T09:37:15.012Z,1008.29
2019-02-19T09:38:14.563Z,1008.35
2019-02-19T09:39:14.558Z,1008.20
2019-02-19T09:40:14.532Z,1008.34
2019-02-19T09:41:15.015Z,1008.22
2019-02-19T09:42:15.012Z,1008.24
2019-02-19T09:43:15.004Z,1008.38
2019-02-19T09:44:14.532Z,1008.32
2019-02-19T09:45:17.017Z,1008.38
2019-02-19T09:46:15.072Z,1008.28
2019-02-19T09:47:15.011Z,1008.34
2019-02-19T09:48:14.034Z,1008.37
2019-02-19T09:49:14.109Z,1008.37
2019-02-19T09:50:14.502Z,1008.40
2019-02-19T09:51:14.051Z,1008.34
2019-02-19T09:52:14.523Z,1008.41
2019-02-19T09:53:14.525Z,1008.36
2019-02-19T09:54:14.578Z,1008.38
2019-02-19T09:55:14.502Z,1008.39
2019-02-19T09:56:14.818Z,1008.38
2019-02-19T09:57:14.523Z,1008.40
2019-02-19T09:58:14.508Z,1008.37
2019-02-19T09:59:16.515Z,1008.39
2019-02-19T10:00:14.510Z,1008.38
2019-02-19T10:01:13.926Z,1008.43
2019-02-19T10:02:14.014Z,1008.49
2019-02-19T10:03:14.519Z,1008.51
2019-02-19T10:04:13.841Z,1008.47
2019-02-19T10:05:14.508Z,1008.44
2019-02-19T10:06:14.511Z,1008.52
2019-02-19T10:07:14.627Z,1008.49
2019-02-19T10:08:14.549Z,1008.50
2019-02-19T10:09:14.052Z,1008.53
2019-02-19T10:10:14.516Z,1008.54
2019-02-19T10:11:14.522Z,1008.57
2019-02-19T10:12:14.507Z,1008.58
2019-02-19T10:13:19.058Z,1008.59
2019-02-19T10:14:13.733Z,1008.53
2019-02-19T10:15:14.535Z,1008.48
2019-02-19T10:16:14.507Z,1008.60
2019-02-19T10:17:14.507Z,1008.65
2019-02-19T10:18:14.522Z,1008.58
2019-02-19T10:19:14.047Z,1008.65
2019-02-19T10:20:14.528Z,1008.62
2019-02-19T10:21:14.513Z,1008.63
2019-02-19T10:22:13.653Z,1008.62
2019-02-19T10:23:14.044Z,1008.65
2019-02-19T10:24:14.542Z,1008.58
2019-02-19T10:25:14.515Z,1008.61
2019-02-19T10:26:14.517Z,1008.58
2019-02-19T10:27:14.512Z,1008.65
2019-02-19T10:28:14.045Z,1008.69
2019-02-19T10:29:14.524Z,1008.74
2019-02-19T10:30:13.565Z,1008.63
2019-02-19T10:31:14.513Z,1008.66
2019-02-19T10:32:14.517Z,1008.68
2019-02-19T10:33:16.004Z,1008.64
2019-02-19T10:34:13.531Z,1008.65
2019-02-19T10:35:13.501Z,1008.56
2019-02-19T10:36:14.051Z,1008.63
2019-02-19T10:37:13.576Z,1008.69
2019-02-19T10:38:14.019Z,1008.62
2019-02-19T10:39:14.024Z,1008.65
2019-02-19T10:40:13.458Z,1008.64
2019-02-19T10:41:13.538Z,1008.66
2019-02-19T10:42:14.143Z,1008.59
2019-02-19T10:43:13.422Z,1008.64
2019-02-19T10:44:13.571Z,1008.62
2019-02-19T10:45:13.550Z,1008.64
2019-02-19T10:46:13.382Z,1008.70
2019-02-19T10:47:14.027Z,1008.67
2019-02-19T10:48:18.995Z,1008.67
2019-02-19T10:49:14.545Z,1008.76
2019-02-19T10:50:14.023Z,1008.69
2019-02-19T10:51:13.384Z,1008.74
2019-02-19T10:52:15.092Z,1008.65
2019-02-19T10:53:14.035Z,1008.62
2019-02-19T10:54:13.568Z,1008.62
2019-02-19T10:55:14.030Z,1008.65
2019-02-19T10:56:13.316Z,1008.69
2019-02-19T10:57:14.027Z,1008.71
2019-02-19T10:58:22.274Z,1008.71
2019-02-19T10:59:15.042Z,1008.69
2019-02-19T11:00:14.052Z,1008.76
2019-02-19T11:01:13.562Z,1008.72
2019-02-19T11:02:14.021Z,1008.76
2019-02-19T11:03:14.028Z,1008.78
2019-02-19T11:04:13.197Z,1008.81
2019-02-19T11:05:14.069Z,1008.77
2019-02-19T11:06:14.044Z,1008.79
2019-02-19T11:07:13.153Z,1008.78
2019-02-19T11:08:14.030Z,1008.77
2019-02-19T11:09:13.149Z,1008.79
2019-02-19T11:10:14.028Z,1008.80
2019-02-19T11:11:13.561Z,1008.84
2019-02-19T11:12:13.103Z,1008.76
2019-02-19T11:13:14.019Z,1008.69
2019-02-19T11:14:14.020Z,1008.69
2019-02-19T11:15:14.037Z,1008.72
2019-02-19T11:16:13.091Z,1008.78
2019-02-19T11:17:13.048Z,1008.80
2019-02-19T11:18:14.039Z,1008.77
2019-02-19T11:19:13.065Z,1008.80
2019-02-19T11:20:13.542Z,1008.77
2019-02-19T11:21:19.470Z,1008.81
2019-02-19T11:22:13.998Z,1008.79
2019-02-19T11:23:13.548Z,1008.81
2019-02-19T11:24:13.011Z,1008.74
2019-02-19T11:25:13.538Z,1008.78
2019-02-19T11:26:13.044Z,1008.84
2019-02-19T11:27:12.940Z,1008.91
2019-02-19T11:28:13.068Z,1008.86
2019-02-19T11:29:12.969Z,1008.80
2019-02-19T11:30:13.584Z,1008.77
2019-02-19T11:31:13.552Z,1008.75
2019-02-19T11:32:13.554Z,1008.78
2019-02-19T11:33:12.877Z,1008.71
2019-02-19T11:34:12.879Z,1008.66
2019-02-19T11:35:13.047Z,1008.73
2019-02-19T11:36:13.066Z,1008.65
2019-02-19T11:37:13.545Z,1008.76
2019-02-19T11:38:12.831Z,1008.68
2019-02-19T11:39:12.812Z,1008.71
2019-02-19T11:40:13.549Z,1008.72
2019-02-19T11:41:13.061Z,1008.77
2019-02-19T11:42:13.542Z,1008.73
2019-02-19T11:43:12.765Z,1008.80
2019-02-19T11:44:12.791Z,1008.79
2019-02-19T11:45:12.764Z,1008.68
2019-02-19T11:46:12.750Z,1008.68
2019-02-19T11:47:13.079Z,1008.72
2019-02-19T11:48:12.711Z,1008.76
2019-02-19T11:49:13.561Z,1008.72
2019-02-19T11:50:12.702Z,1008.73
2019-02-19T11:51:13.542Z,1008.81
2019-02-19T11:52:12.694Z,1008.72
2019-02-19T11:53:13.541Z,1008.75
2019-02-19T11:54:13.595Z,1008.71
2019-02-19T11:55:12.710Z,1008.74
2019-02-19T11:56:13.538Z,1008.68
2019-02-19T11:57:13.542Z,1008.76
2019-02-19T11:58:13.543Z,1008.74
2019-02-19T11:59:12.629Z,1008.74
2019-02-19T12:00:27.063Z,1008.73
2019-02-19T12:01:13.184Z,1008.67
2019-02-19T12:02:13.551Z,1008.73
2019-02-19T12:03:12.550Z,1008.71
2019-02-19T12:04:12.570Z,1008.60
2019-02-19T12:05:12.590Z,1008.69